createdAt,value
2019-06-10T00:00:37.489Z,3.80
2019-06-10T00:03:07.263Z,3.70
2019-06-10T00:05:36.683Z,3.70
2019-06-10T00:08:07.095Z,3.93
2019-06-10T00:10:36.669Z,3.30
2019-06-10T00:13:07.359Z,3.47
2019-06-10T00:18:45.708Z,3.57
2019-06-10T00:21:14.993Z,3.80
2019-06-10T00:23:44.480Z,3.60
2019-06-10T00:26:13.966Z,3.40
2019-06-10T00:28:43.353Z,3.43
2019-06-10T00:31:13.929Z,3.43
2019-06-10T00:33:43.390Z,3.20
2019-06-10T00:36:13.667Z,3.53
2019-06-10T00:38:43.273Z,4.17
2019-06-10T00:41:14.140Z,3.47
2019-06-10T00:43:43.983Z,3.87
2019-06-10T00:46:13.513Z,3.80
2019-06-10T00:48:42.918Z,3.83
2019-06-10T00:51:13.217Z,3.57
2019-06-10T00:53:42.862Z,3.70
2019-06-10T00:56:14.298Z,3.40
2019-06-10T00:58:43.644Z,3.67
2019-06-10T01:01:14.553Z,3.63
2019-06-10T01:03:44.176Z,3.63
2019-06-10T01:06:15.138Z,3.70
2019-06-10T01:08:44.889Z,3.90
2019-06-10T01:11:21.341Z,4.50
2019-06-10T01:13:45.491Z,4.03
2019-06-10T01:16:15.566Z,3.70
2019-06-10T01:18:45.170Z,3.77
2019-06-10T01:21:15.502Z,3.87
2019-06-10T01:23:45.013Z,3.57
2019-06-10T01:26:16.404Z,4.20
2019-06-10T01:28:45.441Z,4.30
2019-06-10T01:31:19.158Z,4.00
2019-06-10T01:33:46.047Z,4.10
2019-06-10T01:36:16.545Z,4.20
2019-06-10T01:38:46.044Z,4.27
2019-06-10T01:41:16.613Z,4.10
2019-06-10T01:43:46.144Z,4.03
2019-06-10T01:46:16.244Z,3.90
2019-06-10T01:48:48.268Z,4.30
2019-06-10T01:51:21.496Z,4.40
2019-06-10T01:53:51.489Z,4.00
2019-06-10T01:56:21.575Z,4.43
2019-06-10T01:58:51.463Z,4.40
2019-06-10T02:07:15.502Z,4.20
2019-06-10T02:09:43.884Z,4.17
2019-06-10T02:12:17.211Z,4.30
2019-06-10T02:14:45.512Z,3.77
2019-06-10T02:17:16.376Z,4.23
2019-06-10T02:19:46.024Z,4.60
2019-06-10T02:22:17.051Z,4.43
2019-06-10T02:24:46.440Z,3.93
2019-06-10T02:33:07.191Z,4.27
2019-06-10T02:35:44.162Z,4.50
2019-06-10T02:41:16.356Z,5.03
2019-06-10T02:43:45.055Z,4.97
2019-06-10T02:46:17.380Z,4.60
2019-06-10T02:48:45.633Z,4.30
2019-06-10T02:51:17.388Z,4.67
2019-06-10T02:53:46.270Z,4.37
2019-06-10T02:56:17.719Z,4.47
2019-06-10T02:58:46.863Z,4.53
2019-06-10T03:01:17.397Z,4.80
2019-06-10T03:03:49.508Z,4.37
2019-06-10T03:06:20.978Z,4.50
2019-06-10T03:17:32.293Z,4.63
2019-06-10T03:20:02.275Z,4.50
2019-06-10T03:22:32.747Z,3.90
2019-06-10T03:25:02.905Z,4.50
2019-06-10T03:27:32.934Z,4.33
2019-06-10T03:30:14.147Z,4.77
2019-06-10T03:32:40.656Z,4.60
2019-06-10T03:35:05.763Z,4.73
2019-06-10T03:37:35.291Z,4.90
2019-06-10T03:40:04.823Z,4.47
2019-06-10T03:42:34.230Z,4.40
2019-06-10T03:45:03.622Z,5.30
2019-06-10T03:47:33.023Z,5.03
2019-06-10T03:50:03.194Z,4.80
2019-06-10T03:52:32.928Z,5.20
2019-06-10T03:55:03.004Z,4.97
2019-06-10T03:57:33.123Z,4.57
2019-06-10T04:00:10.352Z,4.97
2019-06-10T04:02:33.602Z,4.70
2019-06-10T04:05:02.954Z,4.67
2019-06-10T04:07:34.247Z,5.20
2019-06-10T04:10:03.836Z,4.23
2019-06-10T04:12:33.218Z,7.07
2019-06-10T04:15:03.207Z,4.80
2019-06-10T04:17:33.311Z,4.70
2019-06-10T04:20:11.587Z,4.33
2019-06-10T04:22:35.919Z,4.30
2019-06-10T04:25:05.713Z,5.20
2019-06-10T04:27:35.159Z,4.50
2019-06-10T04:30:04.691Z,4.60
2019-06-10T04:32:34.088Z,4.37
2019-06-10T04:35:03.520Z,4.70
2019-06-10T04:37:32.922Z,4.93
2019-06-10T04:40:02.893Z,5.10
2019-06-10T04:42:32.978Z,5.10
2019-06-10T04:45:03.198Z,5.20
2019-06-10T04:47:33.408Z,5.17
2019-06-10T04:50:03.263Z,5.23
2019-06-10T04:52:33.157Z,4.50
2019-06-10T04:55:02.792Z,4.90
2019-06-10T04:57:32.888Z,4.77
2019-06-10T05:00:04.188Z,5.17
2019-06-10T05:02:33.569Z,5.00
2019-06-10T05:05:03.223Z,4.80
2019-06-10T05:07:36.819Z,5.40
2019-06-10T05:10:04.917Z,4.93
2019-06-10T05:12:34.344Z,5.00
2019-06-10T05:15:03.830Z,5.10
2019-06-10T05:17:34.375Z,4.93
2019-06-10T05:20:03.925Z,4.60
2019-06-10T05:22:33.280Z,4.57
2019-06-10T05:25:02.773Z,4.90
2019-06-10T05:27:33.037Z,5.00
2019-06-10T05:30:02.627Z,4.90
2019-06-10T05:32:33.397Z,5.00
2019-06-10T05:35:03.651Z,4.73
2019-06-10T05:37:33.895Z,5.23
2019-06-10T05:40:04.075Z,4.30
2019-06-10T05:42:35.602Z,4.77
2019-06-10T05:45:05.779Z,4.93
2019-06-10T05:47:36.073Z,4.80
2019-06-10T05:50:06.417Z,4.50
2019-06-10T05:52:35.812Z,4.63
2019-06-10T05:55:05.416Z,4.40
2019-06-10T05:58:02.423Z,4.90
2019-06-10T06:00:33.440Z,5.30
2019-06-10T06:03:02.772Z,5.50
2019-06-10T06:05:33.293Z,5.17
2019-06-10T06:08:08.313Z,5.10
2019-06-10T06:13:40.215Z,5.50
2019-06-10T06:16:12.359Z,5.10
2019-06-10T06:18:42.305Z,5.43
2019-06-10T06:21:25.213Z,5.40
2019-06-10T06:23:43.707Z,5.47
2019-06-10T06:26:16.825Z,5.40
2019-06-10T06:28:47.070Z,5.30
2019-06-10T06:34:14.248Z,6.07
2019-06-10T06:36:43.742Z,5.10
2019-06-10T06:39:13.143Z,5.40
2019-06-10T06:41:45.610Z,6.20
2019-06-10T06:44:15.096Z,5.03
2019-06-10T06:47:02.524Z,5.50
2019-06-10T06:49:35.287Z,5.10
2019-06-10T06:52:08.545Z,5.60
2019-06-10T06:54:42.303Z,5.47
2019-06-10T06:57:13.038Z,4.80
2019-06-10T06:59:43.182Z,4.93
2019-06-10T07:02:14.526Z,5.03
2019-06-10T07:04:46.701Z,5.37
2019-06-10T07:07:22.071Z,5.13
2019-06-10T07:09:53.082Z,5.20
2019-06-10T07:12:25.618Z,5.10
2019-06-10T07:14:58.862Z,5.27
2019-06-10T07:17:41.615Z,5.37
2019-06-10T07:23:09.135Z,4.90
2019-06-10T07:25:46.545Z,5.40
2019-06-10T07:28:13.045Z,4.90
2019-06-10T07:30:51.191Z,5.27
2019-06-10T07:33:14.438Z,4.97
2019-06-10T07:35:45.345Z,4.97
2019-06-10T07:38:17.369Z,4.67
2019-06-10T07:40:47.140Z,5.30
2019-06-10T07:43:16.978Z,5.60
2019-06-10T07:45:48.042Z,5.40
2019-06-10T07:48:17.689Z,5.50
2019-06-10T07:50:47.142Z,5.53
2019-06-10T07:53:16.607Z,5.27
2019-06-10T07:58:52.758Z,5.70
2019-06-10T08:01:23.184Z,5.23
2019-06-10T08:03:56.484Z,5.90
2019-06-10T08:06:27.434Z,6.00
2019-06-10T08:08:58.550Z,6.10
2019-06-10T08:11:33.254Z,6.27
2019-06-10T08:14:04.630Z,5.77
2019-06-10T08:16:35.630Z,5.77
2019-06-10T08:19:28.966Z,5.63
2019-06-10T08:21:38.998Z,5.30
2019-06-10T08:24:12.516Z,5.40
2019-06-10T08:26:46.157Z,5.80
2019-06-10T08:29:17.237Z,6.00
2019-06-10T08:31:49.911Z,6.27
2019-06-10T08:34:22.077Z,6.30
2019-06-10T08:36:54.044Z,6.47
2019-06-10T08:39:23.050Z,6.07
2019-06-10T08:41:52.951Z,5.60
2019-06-10T08:44:27.320Z,5.90
2019-06-10T08:49:37.083Z,6.33
2019-06-10T08:52:09.107Z,5.97
2019-06-10T08:54:41.203Z,5.53
2019-06-10T09:05:45.865Z,5.37
2019-06-10T09:11:23.807Z,6.17
2019-06-10T09:13:53.248Z,5.87
2019-06-10T09:16:23.488Z,6.00
2019-06-10T09:18:55.239Z,6.03
2019-06-10T09:21:25.284Z,6.17
2019-06-10T09:23:59.783Z,5.83
2019-06-10T09:26:25.937Z,6.13
2019-06-10T09:31:55.923Z,6.20
2019-06-10T09:34:26.021Z,6.07
2019-06-10T09:36:56.897Z,5.83
2019-06-10T09:39:26.553Z,6.13
2019-06-10T09:42:02.853Z,6.33
2019-06-10T09:47:34.918Z,6.17
2019-06-10T09:50:06.011Z,6.40
2019-06-10T09:52:35.384Z,6.47
2019-06-10T09:55:05.926Z,6.50
2019-06-10T09:57:35.556Z,6.83
2019-06-10T10:02:56.175Z,6.80
2019-06-10T10:06:01.857Z,7.17
2019-06-10T10:08:23.266Z,6.47
2019-06-10T10:10:58.475Z,6.80
2019-06-10T10:13:25.132Z,6.67
2019-06-10T10:15:56.193Z,6.30
2019-06-10T10:18:25.681Z,6.90
2019-06-10T10:24:07.942Z,8.30
2019-06-10T10:26:32.444Z,7.83
2019-06-10T10:29:02.772Z,7.07
2019-06-10T10:31:32.590Z,6.70
2019-06-10T10:34:02.748Z,7.77
2019-06-10T10:39:38.383Z,6.70
2019-06-10T10:45:17.786Z,7.07
2019-06-10T10:47:47.554Z,7.43
2019-06-10T10:50:19.340Z,19.77
2019-06-10T10:52:49.912Z,8.17
2019-06-10T10:55:22.201Z,6.67
2019-06-10T10:57:54.611Z,6.40
2019-06-10T11:00:24.183Z,7.07
2019-06-10T11:02:54.385Z,16.57
2019-06-10T11:05:36.146Z,7.17
2019-06-10T11:08:08.061Z,6.43
2019-06-10T11:10:37.993Z,6.60
2019-06-10T11:13:10.110Z,6.63
2019-06-10T11:15:39.789Z,6.60
2019-06-10T11:18:12.668Z,6.67
2019-06-10T11:23:37.600Z,7.10
2019-06-10T11:26:07.144Z,6.30
2019-06-10T11:28:36.630Z,7.30
2019-06-10T11:31:06.404Z,6.87
2019-06-10T11:33:35.816Z,7.27
2019-06-10T11:36:05.454Z,7.70
2019-06-10T11:38:35.000Z,7.10
2019-06-10T11:41:04.446Z,6.80
2019-06-10T11:43:33.930Z,7.40
2019-06-10T11:46:07.016Z,7.83
2019-06-10T11:48:35.088Z,8.13
2019-06-10T11:51:05.009Z,8.00
2019-06-10T11:53:34.859Z,7.33
2019-06-10T11:56:04.901Z,6.97
2019-06-10T11:58:34.308Z,6.80
2019-06-10T12:01:04.224Z,6.97
2019-06-10T12:03:33.879Z,7.13
2019-06-10T12:06:05.373Z,6.77
2019-06-10T12:08:35.809Z,7.47
2019-06-10T12:11:05.319Z,7.20
2019-06-10T12:13:34.920Z,6.83
2019-06-10T12:16:50.772Z,6.50
2019-06-10T12:18:36.138Z,6.97
2019-06-10T12:21:05.684Z,6.80
2019-06-10T12:23:35.138Z,6.13
2019-06-10T12:26:05.157Z,6.57
2019-06-10T12:28:35.233Z,6.83
2019-06-10T12:31:07.207Z,7.30
2019-06-10T12:33:35.728Z,5.97
2019-06-10T12:36:07.121Z,5.57
2019-06-10T12:38:36.551Z,5.67
2019-06-10T12:41:08.896Z,5.60
2019-06-10T12:43:37.112Z,6.00
2019-06-10T12:46:06.568Z,4.50
2019-06-10T12:48:36.051Z,4.43
2019-06-10T12:51:09.015Z,4.90
2019-06-10T12:53:36.840Z,4.70
2019-06-10T12:56:10.505Z,4.73
2019-06-10T12:58:37.428Z,4.70
2019-06-10T13:01:08.021Z,5.03
2019-06-10T13:03:37.676Z,4.40
2019-06-10T13:06:09.420Z,4.70
2019-06-10T13:08:42.896Z,4.40
2019-06-10T13:11:13.287Z,4.43
2019-06-10T13:13:42.937Z,4.30
2019-06-10T13:16:14.392Z,3.77
2019-06-10T13:18:53.874Z,4.00
2019-06-10T13:24:23.451Z,3.67
2019-06-10T13:26:53.472Z,4.40
2019-06-10T13:29:24.193Z,4.40
2019-06-10T13:31:54.135Z,4.47
2019-06-10T13:37:29.579Z,4.23
2019-06-10T13:46:11.141Z,4.90
2019-06-10T13:48:42.891Z,4.20
2019-06-10T13:51:15.230Z,5.03
2019-06-10T13:59:34.988Z,5.57
2019-06-10T14:02:06.366Z,5.17
2019-06-10T14:04:35.698Z,5.63
2019-06-10T14:07:08.635Z,4.97
2019-06-10T14:09:39.156Z,5.20
2019-06-10T14:12:09.097Z,4.77
2019-06-10T14:14:39.566Z,4.57
2019-06-10T14:17:09.650Z,4.53
2019-06-10T14:19:39.240Z,5.40
2019-06-10T14:22:11.169Z,5.63
2019-06-10T14:24:42.097Z,5.20
2019-06-10T14:27:17.202Z,5.93
2019-06-10T14:29:43.023Z,5.20
2019-06-10T14:32:15.799Z,5.40
2019-06-10T14:40:42.932Z,5.40
2019-06-10T14:43:16.038Z,5.17
2019-06-10T14:45:45.024Z,4.50
2019-06-10T14:51:14.025Z,4.53
2019-06-10T14:53:42.899Z,5.20
2019-06-10T14:56:17.278Z,5.30
2019-06-10T14:58:46.816Z,4.77
2019-06-10T15:01:23.743Z,5.00
2019-06-10T15:06:44.095Z,5.87
2019-06-10T15:09:14.065Z,5.87
2019-06-10T15:11:43.580Z,5.73
2019-06-10T15:17:10.482Z,6.43
2019-06-10T15:19:42.406Z,6.20
2019-06-10T15:22:12.652Z,5.70
2019-06-10T15:27:38.271Z,5.87
2019-06-10T15:30:14.595Z,6.03
2019-06-10T15:32:42.340Z,5.90
2019-06-10T15:35:14.188Z,6.17
2019-06-10T15:43:57.719Z,6.33
2019-06-10T15:46:29.465Z,5.80
2019-06-10T15:52:04.590Z,6.17
2019-06-10T15:54:34.019Z,6.00
2019-06-10T15:57:03.755Z,5.67
2019-06-10T16:02:38.903Z,6.37
2019-06-10T16:05:08.963Z,6.13
2019-06-10T16:07:38.834Z,6.57
2019-06-10T16:10:08.730Z,8.07
2019-06-10T16:12:38.270Z,7.57
2019-06-10T16:15:09.215Z,8.93
2019-06-10T16:17:38.703Z,9.40
2019-06-10T16:20:08.346Z,9.43
2019-06-10T16:22:37.843Z,9.67
2019-06-10T16:25:12.654Z,9.27
2019-06-10T16:27:48.601Z,9.00
2019-06-10T16:30:14.667Z,8.67
2019-06-10T16:32:46.404Z,8.07
2019-06-10T16:35:16.770Z,8.90
2019-06-10T16:37:46.250Z,8.10
2019-06-10T16:40:25.824Z,8.63
2019-06-10T16:42:56.510Z,8.90
2019-06-10T17:00:14.640Z,8.67
2019-06-10T17:02:44.555Z,9.47
2019-06-10T17:05:14.633Z,8.57
2019-06-10T17:07:44.306Z,8.70
2019-06-10T17:10:14.347Z,8.20
2019-06-10T17:12:47.767Z,8.77
2019-06-10T17:20:34.136Z,9.07
2019-06-10T17:23:36.545Z,8.97
2019-06-10T17:26:27.948Z,8.23
2019-06-10T17:32:10.555Z,8.10
2019-06-10T17:35:04.007Z,7.80
2019-06-10T17:40:40.497Z,7.93
2019-06-10T17:43:09.974Z,9.17
2019-06-10T17:51:03.392Z,8.30
2019-06-10T18:29:58.930Z,12.63
2019-06-10T18:32:29.702Z,14.30
2019-06-10T18:35:03.057Z,13.10
2019-06-10T18:37:34.466Z,13.80
2019-06-10T18:40:03.958Z,14.47
2019-06-10T18:42:34.930Z,14.23
2019-06-10T18:45:08.775Z,14.23
2019-06-10T18:47:38.800Z,13.63
2019-06-10T18:50:12.590Z,13.33
2019-06-10T18:52:43.342Z,13.50
2019-06-10T18:55:13.027Z,14.13
2019-06-10T18:57:43.359Z,14.07
2019-06-10T19:00:18.843Z,13.73
2019-06-10T19:02:48.285Z,12.50
2019-06-10T19:05:18.449Z,12.70
2019-06-10T19:10:56.674Z,15.10
2019-06-10T19:13:26.137Z,16.50
2019-06-10T19:15:55.624Z,17.40
2019-06-10T19:18:26.172Z,18.87
2019-06-10T19:20:55.735Z,18.57
2019-06-10T19:23:27.387Z,16.60
2019-06-10T19:25:57.717Z,13.60
2019-06-10T19:28:27.263Z,10.20
2019-06-10T19:30:58.267Z,8.13
2019-06-10T19:33:28.048Z,8.57
2019-06-10T19:35:57.727Z,8.37
2019-06-10T19:38:27.843Z,8.73
2019-06-10T19:40:59.641Z,8.47
2019-06-10T19:43:29.051Z,8.93
2019-06-10T19:45:59.674Z,8.70
2019-06-10T19:51:32.911Z,8.40
2019-06-10T19:54:03.684Z,7.87
2019-06-10T19:56:35.432Z,8.07
2019-06-10T19:59:05.749Z,7.80
2019-06-10T20:04:42.828Z,7.93
2019-06-10T20:07:12.824Z,7.33
2019-06-10T20:09:45.106Z,6.90
2019-06-10T20:44:29.656Z,4.60
2019-06-10T20:46:59.059Z,5.17
2019-06-10T20:49:28.460Z,4.90
2019-06-10T20:52:09.974Z,4.30
2019-06-10T20:54:28.861Z,4.60
2019-06-10T20:56:58.207Z,4.80
2019-06-10T20:59:27.603Z,4.37
2019-06-10T21:01:57.135Z,4.50
2019-06-10T21:04:26.552Z,4.50
2019-06-10T21:06:57.275Z,4.50
2019-06-10T21:09:28.039Z,4.97
2019-06-10T21:11:57.449Z,4.80
2019-06-10T21:14:26.932Z,4.90
2019-06-10T21:16:56.372Z,4.80
2019-06-10T21:19:25.632Z,5.40
2019-06-10T21:21:55.106Z,5.50
2019-06-10T21:24:24.452Z,5.20
2019-06-10T21:26:54.912Z,4.70
2019-06-10T21:29:24.474Z,5.00
2019-06-10T21:31:54.801Z,5.27
2019-06-10T21:34:24.595Z,5.10
2019-06-10T21:36:54.468Z,5.53
2019-06-10T21:39:24.152Z,4.87
2019-06-10T21:41:54.552Z,5.03
2019-06-10T21:44:24.094Z,5.00
2019-06-10T21:46:53.502Z,5.13
2019-06-10T21:49:23.725Z,5.30
2019-06-10T21:51:56.563Z,5.27
2019-06-10T21:54:24.478Z,5.53
2019-06-10T21:56:55.456Z,5.40
2019-06-10T21:59:24.939Z,5.50
2019-06-10T22:01:54.334Z,5.67
2019-06-10T22:07:32.918Z,6.07
2019-06-10T22:10:02.646Z,5.67
2019-06-10T22:12:32.333Z,6.00
2019-06-10T22:15:01.725Z,5.80
2019-06-10T22:17:31.118Z,5.70
2019-06-10T22:20:00.508Z,5.30
2019-06-10T22:22:32.235Z,5.87
2019-06-10T22:25:02.980Z,5.70
2019-06-10T22:27:32.714Z,5.67
2019-06-10T22:30:04.176Z,5.50
2019-06-10T22:32:33.067Z,5.83
2019-06-10T22:35:02.997Z,6.30
2019-06-10T22:37:33.001Z,5.90
2019-06-10T22:40:03.298Z,6.30
2019-06-10T22:42:32.943Z,6.83
2019-06-10T22:45:03.971Z,6.30
2019-06-10T22:47:33.316Z,6.20
2019-06-10T22:50:07.062Z,6.10
2019-06-10T22:52:33.790Z,6.50
2019-06-10T22:55:03.666Z,6.07
2019-06-10T22:57:33.112Z,6.10
2019-06-10T23:00:03.096Z,6.40
2019-06-10T23:02:33.326Z,6.63
2019-06-10T23:05:05.496Z,6.53
2019-06-10T23:07:33.845Z,6.47
2019-06-10T23:10:03.488Z,6.67
2019-06-10T23:12:32.932Z,6.73
2019-06-10T23:15:02.801Z,6.73
2019-06-10T23:17:32.362Z,6.50
2019-06-10T23:20:03.191Z,6.70
2019-06-10T23:22:32.861Z,7.70
2019-06-10T23:25:02.823Z,7.43
2019-06-10T23:27:32.854Z,7.73
2019-06-10T23:30:10.898Z,7.97
2019-06-10T23:32:33.329Z,7.87
2019-06-10T23:35:02.777Z,8.37
2019-06-10T23:37:32.383Z,8.60
2019-06-10T23:40:03.971Z,8.27
2019-06-10T23:42:53.149Z,8.73
2019-06-10T23:45:22.770Z,8.80
2019-06-10T23:47:54.314Z,9.00
2019-06-10T23:50:23.213Z,8.87
2019-06-10T23:52:54.537Z,8.73
2019-06-10T23:55:23.759Z,8.60
2019-06-10T23:57:54.693Z,8.57
